Time;durP1;ratioP1;P1;durP2;ratioP2;P2;SDS_P1;SDS_P2;PMS_P1;PMS_P2;Temp;Humidity;BMP_temperature;BMP_pressure;BME280_temperature;BME280_humidity;BME280_pressure;Samples;Min_cycle;Max_cycle;Signal;HPM_P1;HPM_P2
2021/04/15 00:00:56;;;;;;;417.75;231.85;;;;;;;;;;5019536;28;20033;-72
2021/04/15 00:03:27;;;;;;;404.58;226.10;;;;;;;;;;5020150;28;20066;-72
2021/04/15 00:05:54;;;;;;;418.67;228.18;;;;;;;;;;5044298;28;20029;-72
2021/04/15 00:08:21;;;;;;;425.33;236.75;;;;;;;;;;5041475;28;20040;-72
2021/04/15 00:10:49;;;;;;;411.73;228.45;;;;;;;;;;5021999;28;20346;-73
2021/04/15 00:13:18;;;;;;;409.65;242.68;;;;;;;;;;5022842;28;20030;-72
2021/04/15 00:15:44;;;;;;;410.17;231.85;;;;;;;;;;5042313;28;20033;-72
2021/04/15 00:18:10;;;;;;;404.60;227.35;;;;;;;;;;5023313;28;20374;-73
2021/04/15 00:20:36;;;;;;;421.63;237.63;;;;;;;;;;5037137;28;20029;-72
2021/04/15 00:23:02;;;;;;;420.95;237.43;;;;;;;;;;5035770;28;20086;-72
2021/04/15 00:25:28;;;;;;;433.20;245.73;;;;;;;;;;5023432;28;20432;-72
2021/04/15 00:27:54;;;;;;;420.17;232.10;;;;;;;;;;5022162;28;20095;-72
2021/04/15 00:30:21;;;;;;;424.60;245.65;;;;;;;;;;5016488;28;20453;-73
2021/04/15 00:32:47;;;;;;;417.27;238.48;;;;;;;;;;5038652;28;20025;-72
2021/04/15 00:35:14;;;;;;;402.30;222.23;;;;;;;;;;5040112;28;20350;-72
2021/04/15 00:37:40;;;;;;;411.25;239.63;;;;;;;;;;5024425;28;20032;-72
2021/04/15 00:40:07;;;;;;;401.60;226.05;;;;;;;;;;5040460;28;20032;-72
2021/04/15 00:42:34;;;;;;;408.30;235.25;;;;;;;;;;5022946;28;20115;-73
2021/04/15 00:45:05;;;;;;;409.20;233.23;;;;;;;;;;5024777;28;20021;-72
2021/04/15 00:47:31;;;;;;;408.00;223.95;;;;;;;;;;5049260;28;20025;-73
2021/04/15 00:49:59;;;;;;;411.27;227.63;;;;;;;;;;5023858;28;20032;-73
2021/04/15 00:52:28;;;;;;;415.50;238.15;;;;;;;;;;5037224;28;20658;-72
2021/04/15 00:54:59;;;;;;;422.88;231.55;;;;;;;;;;5024292;28;20099;-73
2021/04/15 00:57:30;;;;;;;424.25;238.35;;;;;;;;;;5040485;28;20033;-72
2021/04/15 00:59:56;;;;;;;431.25;236.18;;;;;;;;;;5025663;28;20048;-73
2021/04/15 01:02:23;;;;;;;412.33;224.25;;;;;;;;;;5021724;28;20431;-72
2021/04/15 01:04:52;;;;;;;422.40;235.93;;;;;;;;;;5022661;28;20071;-72
2021/04/15 01:07:18;;;;;;;411.35;226.48;;;;;;;;;;5048881;28;20026;-72
2021/04/15 01:09:45;;;;;;;423.60;235.68;;;;;;;;;;5041142;28;20033;-73
2021/04/15 01:12:27;;;;;;;417.67;236.43;;;;;;;;;;5040379;28;20099;-72
2021/04/15 01:14:59;;;;;;;404.92;223.60;;;;;;;;;;5031933;28;20183;-73
2021/04/15 01:17:40;;;;;;;409.80;228.20;;;;;;;;;;5034203;28;20021;-73
2021/04/15 01:20:25;;;;;;;408.58;232.43;;;;;;;;;;5036395;28;20025;-73
2021/04/15 01:23:03;;;;;;;419.83;230.55;;;;;;;;;;5036081;28;20071;-72
2021/04/15 01:25:38;;;;;;;416.48;234.65;;;;;;;;;;5048074;28;20174;-72
2021/04/15 01:28:25;;;;;;;417.92;229.38;;;;;;;;;;5041671;28;20032;-73
2021/04/15 01:30:54;;;;;;;413.92;225.55;;;;;;;;;;5020262;28;20071;-73
2021/04/15 01:33:36;;;;;;;419.52;228.65;;;;;;;;;;5023389;28;20035;-73
2021/04/15 01:36:07;;;;;;;408.75;222.75;;;;;;;;;;5053679;28;20029;-73
2021/04/15 01:38:37;;;;;;;409.13;229.43;;;;;;;;;;5041944;28;20129;-73
2021/04/15 01:41:13;;;;;;;406.55;227.95;;;;;;;;;;5015888;28;20573;-72
2021/04/15 01:43:44;;;;;;;411.52;228.63;;;;;;;;;;5025614;28;20041;-72
2021/04/15 01:46:12;;;;;;;414.38;224.48;;;;;;;;;;5037636;28;20033;-73
2021/04/15 01:48:40;;;;;;;402.13;218.07;;;;;;;;;;5030718;28;20029;-73
2021/04/15 01:51:09;;;;;;;415.70;229.00;;;;;;;;;;5022570;28;20037;-73
2021/04/15 01:53:44;;;;;;;411.10;223.07;;;;;;;;;;5038741;28;20040;-73
2021/04/15 01:56:17;;;;;;;412.30;229.10;;;;;;;;;;5042093;28;20104;-73
2021/04/15 01:58:52;;;;;;;398.92;215.77;;;;;;;;;;5021216;28;20123;-72
2021/04/15 02:01:20;;;;;;;396.15;215.80;;;;;;;;;;5038929;28;20060;-72
2021/04/15 02:03:48;;;;;;;396.85;216.45;;;;;;;;;;5039623;28;20046;-73
2021/04/15 02:06:21;;;;;;;395.45;218.23;;;;;;;;;;5020598;28;20029;-73
2021/04/15 02:08:49;;;;;;;401.45;217.35;;;;;;;;;;5022516;28;20436;-73
2021/04/15 02:11:21;;;;;;;405.33;218.10;;;;;;;;;;5037549;28;20033;-73
2021/04/15 02:13:47;;;;;;;394.92;217.43;;;;;;;;;;5042741;28;20037;-73
2021/04/15 02:16:16;;;;;;;403.65;220.55;;;;;;;;;;5025175;28;20061;-73
2021/04/15 02:18:48;;;;;;;411.08;236.35;;;;;;;;;;5039111;28;20061;-73
2021/04/15 02:21:25;;;;;;;421.52;231.70;;;;;;;;;;5026125;28;20431;-73
2021/04/15 02:23:54;;;;;;;405.65;229.88;;;;;;;;;;5031145;28;20056;-73
2021/04/15 02:26:25;;;;;;;397.70;221.27;;;;;;;;;;5032411;28;20021;-73
2021/04/15 02:29:04;;;;;;;397.02;213.07;;;;;;;;;;5031879;28;20515;-72
2021/04/15 02:31:44;;;;;;;403.23;219.82;;;;;;;;;;5057977;28;20025;-73
2021/04/15 02:34:14;;;;;;;403.70;221.15;;;;;;;;;;5026315;28;20108;-73
2021/04/15 02:36:59;;;;;;;408.75;218.18;;;;;;;;;;5045577;28;20503;-73
2021/04/15 02:39:24;;;;;;;419.20;221.48;;;;;;;;;;5045055;28;20485;-73
2021/04/15 02:41:51;;;;;;;433.35;226.90;;;;;;;;;;5048189;28;20032;-73
2021/04/15 02:44:25;;;;;;;408.42;223.05;;;;;;;;;;5044011;28;20029;-73
2021/04/15 02:46:56;;;;;;;418.77;224.93;;;;;;;;;;5030529;28;20013;-73
2021/04/15 02:49:24;;;;;;;397.33;218.82;;;;;;;;;;5047316;28;20028;-73
2021/04/15 02:51:55;;;;;;;406.85;230.18;;;;;;;;;;5029932;28;20036;-73
2021/04/15 02:54:24;;;;;;;404.58;227.02;;;;;;;;;;5048033;28;20372;-73
2021/04/15 02:56:59;;;;;;;395.80;217.20;;;;;;;;;;5048884;28;20037;-73
2021/04/15 02:59:31;;;;;;;390.17;207.80;;;;;;;;;;5056448;28;20060;-73
2021/04/15 03:02:19;;;;;;;388.67;209.80;;;;;;;;;;5048828;28;20405;-73
2021/04/15 03:04:50;;;;;;;391.05;215.73;;;;;;;;;;5023501;28;20454;-73
2021/04/15 03:07:18;;;;;;;383.38;206.05;;;;;;;;;;5030024;28;20469;-74
2021/04/15 03:09:44;;;;;;;388.27;215.85;;;;;;;;;;5026386;28;20051;-73
2021/04/15 03:12:13;;;;;;;387.27;217.35;;;;;;;;;;5047489;28;20033;-73
2021/04/15 03:14:49;;;;;;;387.70;210.90;;;;;;;;;;5052114;28;20433;-73
2021/04/15 03:17:15;;;;;;;386.90;210.52;;;;;;;;;;5042381;28;20472;-74
2021/04/15 03:19:50;;;;;;;385.58;208.95;;;;;;;;;;5030391;28;20072;-74
2021/04/15 03:22:22;;;;;;;391.15;211.52;;;;;;;;;;5040267;28;20083;-74
2021/04/15 03:24:50;;;;;;;393.35;220.45;;;;;;;;;;5029015;28;20025;-74
2021/04/15 03:27:35;;;;;;;394.88;212.63;;;;;;;;;;5048232;28;20049;-73
2021/04/15 03:30:07;;;;;;;394.35;213.32;;;;;;;;;;5029029;28;20029;-73
2021/04/15 03:32:39;;;;;;;384.13;204.35;;;;;;;;;;5047821;28;20094;-74
2021/04/15 03:35:10;;;;;;;394.70;214.55;;;;;;;;;;5046834;28;20036;-73
2021/04/15 03:37:49;;;;;;;399.50;220.75;;;;;;;;;;5028574;28;20033;-74
2021/04/15 03:40:16;;;;;;;397.65;218.30;;;;;;;;;;5043725;28;20055;-73
2021/04/15 03:42:44;;;;;;;396.13;211.93;;;;;;;;;;5042583;28;20057;-73
2021/04/15 03:45:14;;;;;;;402.67;220.88;;;;;;;;;;5045215;28;20053;-73
2021/04/15 03:47:44;;;;;;;401.45;221.73;;;;;;;;;;5044566;28;20040;-74
2021/04/15 03:50:10;;;;;;;391.85;213.27;;;;;;;;;;5025729;28;20373;-74
2021/04/15 03:52:36;;;;;;;393.77;212.80;;;;;;;;;;5043041;28;20032;-73
2021/04/15 03:55:20;;;;;;;389.13;218.68;;;;;;;;;;5046470;28;20036;-74
2021/04/15 03:57:49;;;;;;;389.85;215.20;;;;;;;;;;5029918;28;20029;-74
2021/04/15 04:00:35;;;;;;;391.98;215.95;;;;;;;;;;5025921;28;20041;-73
2021/04/15 04:03:05;;;;;;;390.33;220.63;;;;;;;;;;5046171;28;20032;-74
2021/04/15 04:05:42;;;;;;;381.58;206.02;;;;;;;;;;5044473;28;20056;-74
2021/04/15 04:08:28;;;;;;;389.10;208.48;;;;;;;;;;5044385;28;20010;-73
2021/04/15 04:10:55;;;;;;;388.52;207.57;;;;;;;;;;5051793;28;20059;-73
2021/04/15 04:13:27;;;;;;;438.88;222.85;;;;;;;;;;5029247;28;20116;-74
2021/04/15 04:16:08;;;;;;;417.75;226.85;;;;;;;;;;5054333;28;20032;-73
2021/04/15 04:18:54;;;;;;;443.13;223.93;;;;;;;;;;5042292;28;20037;-74
2021/04/15 04:21:30;;;;;;;410.67;223.80;;;;;;;;;;5043187;28;20492;-73
2021/04/15 04:24:01;;;;;;;393.55;210.18;;;;;;;;;;5053571;28;20446;-73
2021/04/15 04:26:40;;;;;;;408.90;215.73;;;;;;;;;;5029479;28;20029;-73
2021/04/15 04:29:24;;;;;;;405.30;222.40;;;;;;;;;;5043654;28;20055;-73
2021/04/15 04:31:53;;;;;;;395.02;212.23;;;;;;;;;;5026109;28;20035;-73
2021/04/15 04:34:20;;;;;;;403.85;221.10;;;;;;;;;;5029253;28;20719;-73
2021/04/15 04:36:48;;;;;;;398.48;221.00;;;;;;;;;;5045618;28;20473;-72
2021/04/15 04:39:15;;;;;;;395.63;216.18;;;;;;;;;;5043660;28;20484;-73
2021/04/15 04:41:53;;;;;;;395.70;218.13;;;;;;;;;;5026392;28;20025;-72
2021/04/15 04:44:28;;;;;;;436.15;222.63;;;;;;;;;;5026880;28;20508;-74
2021/04/15 04:47:07;;;;;;;410.65;221.10;;;;;;;;;;5040542;28;20823;-74
2021/04/15 04:49:37;;;;;;;399.55;217.02;;;;;;;;;;5026305;28;20405;-73
2021/04/15 04:52:10;;;;;;;408.42;223.63;;;;;;;;;;5025738;28;20044;-74
2021/04/15 04:54:38;;;;;;;414.50;212.10;;;;;;;;;;5041807;28;20028;-74
2021/04/15 04:57:07;;;;;;;417.58;219.25;;;;;;;;;;5029438;28;20046;-73
2021/04/15 04:59:39;;;;;;;439.20;221.57;;;;;;;;;;5045591;28;20037;-74
2021/04/15 05:02:05;;;;;;;419.80;216.38;;;;;;;;;;5040268;28;20087;-74
2021/04/15 05:04:33;;;;;;;417.67;217.35;;;;;;;;;;5046881;28;20035;-72
2021/04/15 05:07:07;;;;;;;417.85;221.93;;;;;;;;;;5049605;28;20029;-72
2021/04/15 05:09:37;;;;;;;429.27;218.32;;;;;;;;;;5020535;28;20029;-72
2021/04/15 05:12:12;;;;;;;454.98;225.15;;;;;;;;;;5032936;28;20693;-72
2021/04/15 05:14:39;;;;;;;449.15;225.77;;;;;;;;;;5020718;28;20045;-72
2021/04/15 05:17:06;;;;;;;431.80;233.75;;;;;;;;;;5031203;28;20036;-72
2021/04/15 05:19:34;;;;;;;460.35;224.43;;;;;;;;;;5028272;28;20025;-72
2021/04/15 05:22:01;;;;;;;424.27;223.80;;;;;;;;;;5042562;28;20030;-72
2021/04/15 05:24:29;;;;;;;412.58;228.68;;;;;;;;;;5020304;28;20138;-72
2021/04/15 05:26:57;;;;;;;424.15;237.55;;;;;;;;;;5023664;28;20025;-72
2021/04/15 05:29:25;;;;;;;398.30;221.65;;;;;;;;;;5038295;28;20120;-72
2021/04/15 05:31:53;;;;;;;401.55;224.20;;;;;;;;;;5042799;28;20122;-72
2021/04/15 05:34:23;;;;;;;404.88;217.55;;;;;;;;;;5021529;28;20174;-72
2021/04/15 05:36:51;;;;;;;409.02;226.00;;;;;;;;;;5022685;28;20021;-72
2021/04/15 05:39:19;;;;;;;412.83;226.27;;;;;;;;;;5022939;28;20507;-72
2021/04/15 05:41:48;;;;;;;407.10;218.43;;;;;;;;;;5024641;28;20037;-72
2021/04/15 05:44:20;;;;;;;393.02;211.07;;;;;;;;;;5040835;28;20065;-72
2021/04/15 05:46:48;;;;;;;403.85;220.80;;;;;;;;;;5040888;28;20903;-72
2021/04/15 05:49:16;;;;;;;396.48;219.30;;;;;;;;;;5024668;28;20047;-72
2021/04/15 05:51:45;;;;;;;394.70;217.70;;;;;;;;;;5049792;28;20084;-72
2021/04/15 05:54:13;;;;;;;401.73;226.93;;;;;;;;;;5034396;28;20111;-72
2021/04/15 05:56:50;;;;;;;391.45;212.65;;;;;;;;;;5041340;28;20067;-72
2021/04/15 05:59:23;;;;;;;393.63;217.65;;;;;;;;;;5026120;28;20057;-72
2021/04/15 06:01:53;;;;;;;399.08;228.90;;;;;;;;;;5018700;28;20036;-72
2021/04/15 06:04:26;;;;;;;295.30;178.63;;;;;;;;;;5041660;28;20040;-71
2021/04/15 06:06:53;;;;;;;398.08;222.90;;;;;;;;;;5024608;28;20029;-71
2021/04/15 06:09:19;;;;;;;402.52;231.07;;;;;;;;;;5036343;28;20025;-71
2021/04/15 06:11:53;;;;;;;398.67;220.85;;;;;;;;;;5031684;28;20028;-71
2021/04/15 06:14:38;;;;;;;396.23;221.35;;;;;;;;;;5018047;28;20057;-71
2021/04/15 06:17:24;;;;;;;403.95;220.77;;;;;;;;;;5043865;28;20048;-71
2021/04/15 06:19:52;;;;;;;413.05;227.32;;;;;;;;;;5025006;28;20079;-71
2021/04/15 06:22:23;;;;;;;412.20;232.52;;;;;;;;;;5036701;28;20040;-71
2021/04/15 06:24:52;;;;;;;403.77;224.88;;;;;;;;;;5043719;28;20037;-71
2021/04/15 06:27:19;;;;;;;402.08;220.68;;;;;;;;;;5028991;28;20060;-71
2021/04/15 06:29:45;;;;;;;408.77;233.00;;;;;;;;;;5028544;28;20900;-71
2021/04/15 06:32:14;;;;;;;405.90;227.75;;;;;;;;;;5023669;28;20112;-71
2021/04/15 06:34:40;;;;;;;402.30;219.60;;;;;;;;;;5031719;28;20035;-71
2021/04/15 06:37:12;;;;;;;407.63;224.90;;;;;;;;;;5026535;28;20029;-71
2021/04/15 06:39:48;;;;;;;397.95;216.88;;;;;;;;;;5047744;28;20033;-71
2021/04/15 06:42:14;;;;;;;411.35;227.93;;;;;;;;;;5028507;28;20028;-71
2021/04/15 06:44:58;;;;;;;404.83;224.73;;;;;;;;;;5031124;28;20029;-71
2021/04/15 06:47:43;;;;;;;406.17;226.23;;;;;;;;;;5022154;28;20034;-72
2021/04/15 06:50:09;;;;;;;402.70;222.18;;;;;;;;;;5042895;28;20100;-72
2021/04/15 06:52:54;;;;;;;403.80;224.57;;;;;;;;;;5036471;28;20509;-72
2021/04/15 06:55:20;;;;;;;408.10;228.30;;;;;;;;;;5028050;28;20626;-72
2021/04/15 06:58:21;;;;;;;413.02;232.55;;;;;;;;;;5034636;28;20029;-72
2021/04/15 07:01:07;;;;;;;411.05;227.10;;;;;;;;;;4935274;29;20385;-72
2021/04/15 07:03:36;;;;;;;412.75;228.82;;;;;;;;;;5030678;28;20048;-72
2021/04/15 07:06:11;;;;;;;420.90;238.27;;;;;;;;;;5029522;28;20021;-72
2021/04/15 07:08:47;;;;;;;413.67;231.50;;;;;;;;;;5039705;28;20036;-72
2021/04/15 07:11:28;;;;;;;427.70;243.60;;;;;;;;;;5028809;28;20017;-72
2021/04/15 07:14:00;;;;;;;420.60;234.27;;;;;;;;;;5047807;28;20033;-72
2021/04/15 07:16:45;;;;;;;462.35;246.02;;;;;;;;;;5024637;28;20037;-73
2021/04/15 07:19:17;;;;;;;441.38;243.05;;;;;;;;;;5053405;28;20025;-72
2021/04/15 07:21:49;;;;;;;450.65;249.98;;;;;;;;;;5044641;28;20054;-72
2021/04/15 07:24:27;;;;;;;488.15;246.85;;;;;;;;;;5025204;28;20346;-72
2021/04/15 07:27:12;;;;;;;462.20;251.52;;;;;;;;;;5030485;28;20025;-72
2021/04/15 07:29:41;;;;;;;466.52;246.45;;;;;;;;;;5028338;28;20075;-73
2021/04/15 07:32:26;;;;;;;542.42;263.83;;;;;;;;;;5049503;28;20025;-71
2021/04/15 07:35:11;;;;;;;486.80;255.88;;;;;;;;;;5017417;28;20682;-72
2021/04/15 07:37:57;;;;;;;455.25;246.95;;;;;;;;;;5044507;28;20035;-72
2021/04/15 07:40:43;;;;;;;442.67;241.82;;;;;;;;;;5043267;28;20028;-73
2021/04/15 07:43:23;;;;;;;450.63;249.55;;;;;;;;;;4995875;28;20043;-73
2021/04/15 07:45:56;;;;;;;438.67;243.37;;;;;;;;;;5039146;28;20465;-73
2021/04/15 07:48:22;;;;;;;432.95;246.50;;;;;;;;;;5051299;28;20037;-72
2021/04/15 07:50:57;;;;;;;446.00;250.82;;;;;;;;;;5028806;28;20032;-73
2021/04/15 07:53:47;;;;;;;429.40;242.98;;;;;;;;;;5022552;28;20037;-73
2021/04/15 07:56:32;;;;;;;430.77;244.35;;;;;;;;;;5029269;28;20033;-72
2021/04/15 07:59:01;;;;;;;443.15;259.33;;;;;;;;;;5053837;28;20477;-71
2021/04/15 08:01:27;;;;;;;434.95;257.35;;;;;;;;;;5053186;28;20033;-73
2021/04/15 08:04:11;;;;;;;432.02;248.93;;;;;;;;;;5024834;28;20037;-73
2021/04/15 08:06:40;;;;;;;449.08;254.32;;;;;;;;;;5021909;28;20028;-73
2021/04/15 08:09:16;;;;;;;448.40;256.05;;;;;;;;;;5045525;28;20026;-72
2021/04/15 08:11:46;;;;;;;454.25;261.75;;;;;;;;;;5044615;28;20033;-73
2021/04/15 08:14:32;;;;;;;433.88;261.20;;;;;;;;;;5034486;28;20712;-72
2021/04/15 08:17:12;;;;;;;456.08;264.85;;;;;;;;;;5024402;28;20776;-73
2021/04/15 08:19:46;;;;;;;452.13;263.13;;;;;;;;;;5047083;28;20609;-73
2021/04/15 08:22:31;;;;;;;448.83;267.23;;;;;;;;;;5051479;28;20036;-73
2021/04/15 08:25:03;;;;;;;469.27;285.83;;;;;;;;;;5024669;28;20028;-74
2021/04/15 08:28:03;;;;;;;470.23;297.50;;;;;;;;;;5043643;28;20032;-73
2021/04/15 08:30:47;;;;;;;447.70;286.90;;;;;;;;;;5057644;28;20040;-73
2021/04/15 08:33:18;;;;;;;450.25;303.77;;;;;;;;;;5053031;28;20027;-73
2021/04/15 08:35:59;;;;;;;451.35;306.85;;;;;;;;;;5049660;28;20029;-73
2021/04/15 08:38:31;;;;;;;447.98;300.77;;;;;;;;;;5048020;28;20088;-73
2021/04/15 08:41:13;;;;;;;437.63;294.50;;;;;;;;;;5031799;28;20025;-73
2021/04/15 08:44:11;;;;;;;430.35;289.17;;;;;;;;;;5056750;28;20025;-72
2021/04/15 08:46:42;;;;;;;427.40;279.08;;;;;;;;;;4989027;28;20366;-73
2021/04/15 08:49:14;;;;;;;420.08;270.17;;;;;;;;;;5025883;28;20043;-72
2021/04/15 08:51:49;;;;;;;417.45;272.45;;;;;;;;;;5044562;28;20041;-73
2021/04/15 08:54:35;;;;;;;416.70;267.23;;;;;;;;;;5040861;28;20063;-73
2021/04/15 08:57:05;;;;;;;414.17;263.45;;;;;;;;;;5048651;28;20036;-72
2021/04/15 08:59:55;;;;;;;418.42;265.13;;;;;;;;;;5018950;28;20028;-71
2021/04/15 09:02:40;;;;;;;422.42;262.25;;;;;;;;;;5055271;28;20043;-73
2021/04/15 09:05:10;;;;;;;431.35;279.48;;;;;;;;;;5016383;28;20033;-72
2021/04/15 09:07:45;;;;;;;415.20;261.38;;;;;;;;;;5043551;28;20025;-72
2021/04/15 09:10:11;;;;;;;424.15;271.67;;;;;;;;;;5041834;28;20013;-73
2021/04/15 09:12:50;;;;;;;422.52;267.13;;;;;;;;;;5034323;28;20108;-73
2021/04/15 09:15:51;;;;;;;427.83;273.05;;;;;;;;;;5047790;28;20108;-73
2021/04/15 09:18:33;;;;;;;492.33;300.35;;;;;;;;;;4957674;28;20019;-73
2021/04/15 09:21:12;;;;;;;526.10;347.42;;;;;;;;;;5013049;28;20400;-73
2021/04/15 09:23:47;;;;;;;464.65;334.33;;;;;;;;;;5027728;28;20057;-73
2021/04/15 09:26:19;;;;;;;452.95;330.10;;;;;;;;;;5013387;28;20517;-75
2021/04/15 09:28:59;;;;;;;442.15;323.33;;;;;;;;;;5024625;28;20112;-73
2021/04/15 09:31:32;;;;;;;457.02;326.85;;;;;;;;;;5020945;28;20021;-73
2021/04/15 09:33:58;;;;;;;445.05;316.38;;;;;;;;;;5041640;28;20038;-72
2021/04/15 09:36:43;;;;;;;439.77;305.63;;;;;;;;;;5031852;28;20473;-73
2021/04/15 09:39:28;;;;;;;466.15;309.33;;;;;;;;;;5045668;28;20059;-74
2021/04/15 09:42:00;;;;;;;497.63;308.92;;;;;;;;;;5017727;28;20725;-73
2021/04/15 09:44:41;;;;;;;480.17;301.98;;;;;;;;;;5037334;28;20033;-73
2021/04/15 09:47:16;;;;;;;516.80;316.50;;;;;;;;;;5019532;28;20508;-73
2021/04/15 09:49:58;;;;;;;511.98;305.75;;;;;;;;;;5049820;28;20369;-72
2021/04/15 09:52:36;;;;;;;512.70;310.27;;;;;;;;;;5029302;28;20202;-74
2021/04/15 09:55:08;;;;;;;527.63;328.17;;;;;;;;;;5032034;28;20063;-71
2021/04/15 09:57:46;;;;;;;512.00;331.27;;;;;;;;;;5030389;28;20025;-73
2021/04/15 10:00:12;;;;;;;649.63;444.75;;;;;;;;;;5037609;28;20025;-72
2021/04/15 10:02:57;;;;;;;526.10;367.35;;;;;;;;;;5030354;28;20426;-73
2021/04/15 10:05:23;;;;;;;541.25;386.70;;;;;;;;;;5044741;28;20277;-72
2021/04/15 10:07:52;;;;;;;591.65;439.58;;;;;;;;;;5028450;28;20032;-73
2021/04/15 10:10:43;;;;;;;665.95;513.15;;;;;;;;;;5028562;28;20365;-73
2021/04/15 10:13:25;;;;;;;894.80;795.60;;;;;;;;;;5033994;28;20399;-73
2021/04/15 10:15:57;;;;;;;495.17;389.58;;;;;;;;;;5036400;28;20025;-73
2021/04/15 10:18:38;;;;;;;509.55;403.33;;;;;;;;;;5027903;28;20028;-73
2021/04/15 10:21:20;;;;;;;482.70;386.50;;;;;;;;;;5045196;28;20087;-73
2021/04/15 10:24:03;;;;;;;481.70;372.17;;;;;;;;;;5023010;28;20497;-72
2021/04/15 10:26:52;;;;;;;471.55;354.67;;;;;;;;;;5040064;28;20108;-72
2021/04/15 10:29:27;;;;;;;470.70;335.38;;;;;;;;;;5019613;28;20028;-73
2021/04/15 10:32:05;;;;;;;452.23;324.23;;;;;;;;;;5041236;28;20128;-73
2021/04/15 10:34:43;;;;;;;484.55;335.40;;;;;;;;;;5050999;28;20024;-72
2021/04/15 10:37:21;;;;;;;469.15;319.42;;;;;;;;;;5048463;28;20025;-73
2021/04/15 10:40:05;;;;;;;483.55;330.60;;;;;;;;;;5051981;28;20029;-73
2021/04/15 10:42:42;;;;;;;465.75;330.60;;;;;;;;;;5047636;28;20354;-73
2021/04/15 10:45:26;;;;;;;459.10;330.60;;;;;;;;;;5032696;28;20025;-72
2021/04/15 10:48:02;;;;;;;458.15;345.63;;;;;;;;;;5044012;28;20033;-74
2021/04/15 10:50:46;;;;;;;454.08;347.92;;;;;;;;;;5030950;28;20044;-77
2021/04/15 10:53:20;;;;;;;453.08;343.85;;;;;;;;;;5032016;28;20037;-74
2021/04/15 10:55:47;;;;;;;450.88;348.75;;;;;;;;;;5053043;28;20111;-72
2021/04/15 10:58:32;;;;;;;460.02;359.38;;;;;;;;;;5032207;28;20029;-72
2021/04/15 11:01:22;;;;;;;470.08;368.83;;;;;;;;;;5025569;28;20043;-73
2021/04/15 11:03:48;;;;;;;458.10;370.10;;;;;;;;;;5020568;28;20099;-72
2021/04/15 11:06:33;;;;;;;465.00;376.48;;;;;;;;;;5021744;28;20120;-73
2021/04/15 11:09:34;;;;;;;454.15;367.63;;;;;;;;;;5038084;28;20030;-72
2021/04/15 11:12:19;;;;;;;469.65;375.92;;;;;;;;;;4970434;28;20126;-72
2021/04/15 11:14:45;;;;;;;463.55;375.02;;;;;;;;;;5039561;28;20381;-71
2021/04/15 11:17:30;;;;;;;452.98;368.60;;;;;;;;;;5045101;28;20490;-71
2021/04/15 11:20:15;;;;;;;460.75;367.17;;;;;;;;;;5049514;28;20526;-70
2021/04/15 11:22:44;;;;;;;462.70;364.58;;;;;;;;;;5025415;28;20021;-72
2021/04/15 11:25:13;;;;;;;458.80;354.80;;;;;;;;;;5030158;28;20395;-71
2021/04/15 11:27:39;;;;;;;453.95;349.15;;;;;;;;;;5046964;28;20024;-72
2021/04/15 11:30:06;;;;;;;444.65;334.67;;;;;;;;;;5051394;28;20692;-71
2021/04/15 11:32:43;;;;;;;457.08;331.75;;;;;;;;;;5026073;28;20686;-72
2021/04/15 11:35:20;;;;;;;544.75;399.05;;;;;;;;;;5026889;28;20380;-72
2021/04/15 11:37:47;;;;;;;599.42;455.13;;;;;;;;;;5047827;28;20033;-72
2021/04/15 11:40:34;;;;;;;501.73;387.40;;;;;;;;;;5042665;28;20472;-72
2021/04/15 11:43:01;;;;;;;493.48;377.77;;;;;;;;;;5047856;28;20028;-71
2021/04/15 11:45:29;;;;;;;502.92;383.20;;;;;;;;;;5024360;28;20419;-71
2021/04/15 11:48:11;;;;;;;487.15;367.90;;;;;;;;;;5047895;28;20495;-71
2021/04/15 11:50:37;;;;;;;516.83;384.13;;;;;;;;;;5046176;28;20037;-71
2021/04/15 11:53:22;;;;;;;519.97;379.75;;;;;;;;;;5033288;28;20029;-71
2021/04/15 11:55:48;;;;;;;490.58;353.10;;;;;;;;;;5046830;28;20033;-71
2021/04/15 11:58:29;;;;;;;475.88;345.33;;;;;;;;;;5051901;28;20033;-72
2021/04/15 12:00:59;;;;;;;471.83;340.23;;;;;;;;;;5029274;28;20033;-72
2021/04/15 12:03:27;;;;;;;;;;;;;;;;;;5049245;28;20063;-71
2021/04/15 12:05:56;;;;;;;459.10;321.15;;;;;;;;;;5050346;28;19905;-72
2021/04/15 12:08:38;;;;;;;457.13;330.60;;;;;;;;;;5033268;28;20021;-72
2021/04/15 12:11:06;;;;;;;491.77;348.58;;;;;;;;;;5038818;28;20104;-72
2021/04/15 12:13:38;;;;;;;486.50;359.65;;;;;;;;;;5046565;28;20120;-73
2021/04/15 12:16:07;;;;;;;494.27;370.23;;;;;;;;;;5022847;28;20037;-72
2021/04/15 12:18:49;;;;;;;502.35;389.13;;;;;;;;;;5032083;28;20416;-72
2021/04/15 12:21:26;;;;;;;498.23;391.30;;;;;;;;;;5022148;28;20022;-72
2021/04/15 12:23:55;;;;;;;457.42;369.20;;;;;;;;;;5013684;28;20036;-72
2021/04/15 12:26:39;;;;;;;458.55;373.77;;;;;;;;;;5044214;28;20029;-72
2021/04/15 12:29:13;;;;;;;449.67;364.25;;;;;;;;;;5027935;28;20029;-72
2021/04/15 12:31:45;;;;;;;440.60;352.42;;;;;;;;;;5047134;28;20156;-72
2021/04/15 12:34:10;;;;;;;437.98;343.08;;;;;;;;;;5050505;28;20070;-72
2021/04/15 12:36:45;;;;;;;485.02;366.70;;;;;;;;;;5039402;28;20022;-72
2021/04/15 12:39:21;;;;;;;476.13;352.52;;;;;;;;;;5051301;28;20025;-72
2021/04/15 12:41:47;;;;;;;453.52;331.38;;;;;;;;;;5037747;28;20026;-72
2021/04/15 12:44:19;;;;;;;447.65;328.92;;;;;;;;;;5046848;28;20029;-72
2021/04/15 12:46:46;;;;;;;453.23;335.17;;;;;;;;;;5033213;28;20020;-72
2021/04/15 12:49:13;;;;;;;458.90;327.65;;;;;;;;;;5051182;28;20013;-72
2021/04/15 12:51:41;;;;;;;467.92;334.27;;;;;;;;;;5020457;28;20037;-72
2021/04/15 12:54:11;;;;;;;444.00;323.98;;;;;;;;;;5046538;28;20056;-72
2021/04/15 12:56:51;;;;;;;444.02;319.42;;;;;;;;;;5037478;28;20021;-72
2021/04/15 12:59:33;;;;;;;450.00;311.90;;;;;;;;;;5041667;28;20025;-72
2021/04/15 13:02:00;;;;;;;439.95;310.48;;;;;;;;;;5045443;28;20485;-72
2021/04/15 13:04:35;;;;;;;451.98;312.92;;;;;;;;;;5013880;28;20041;-72
2021/04/15 13:07:02;;;;;;;466.23;325.63;;;;;;;;;;5021710;28;20027;-71
2021/04/15 13:09:35;;;;;;;437.80;303.67;;;;;;;;;;5024895;28;20331;-72
2021/04/15 13:12:21;;;;;;;446.23;312.42;;;;;;;;;;5015219;28;20029;-71
2021/04/15 13:14:54;;;;;;;441.67;310.83;;;;;;;;;;5024224;28;20037;-72
2021/04/15 13:17:35;;;;;;;458.55;322.30;;;;;;;;;;5022135;28;20036;-72
2021/04/15 13:20:24;;;;;;;465.33;325.15;;;;;;;;;;5027594;28;20051;-72
2021/04/15 13:23:09;;;;;;;442.98;326.67;;;;;;;;;;5033613;28;20040;-73
2021/04/15 13:25:50;;;;;;;443.95;320.80;;;;;;;;;;5024621;28;20032;-73
2021/04/15 13:28:19;;;;;;;464.73;329.48;;;;;;;;;;5045709;28;20453;-72
2021/04/15 13:30:48;;;;;;;444.95;325.70;;;;;;;;;;5044491;28;20033;-72
2021/04/15 13:33:16;;;;;;;435.90;319.60;;;;;;;;;;5023465;28;20047;-72
2021/04/15 13:36:02;;;;;;;445.10;324.38;;;;;;;;;;5045084;28;20032;-72
2021/04/15 13:38:28;;;;;;;443.23;315.70;;;;;;;;;;5039309;28;20040;-72
2021/04/15 13:41:08;;;;;;;436.33;314.73;;;;;;;;;;5022220;28;20025;-72
2021/04/15 13:43:44;;;;;;;435.63;309.73;;;;;;;;;;5045468;28;20029;-72
2021/04/15 13:46:27;;;;;;;441.50;305.10;;;;;;;;;;5048057;28;20017;-73
2021/04/15 13:49:02;;;;;;;453.33;309.52;;;;;;;;;;5015760;28;21815;-72
2021/04/15 13:51:30;;;;;;;435.40;300.95;;;;;;;;;;5048417;28;20033;-72
2021/04/15 13:54:02;;;;;;;436.55;306.67;;;;;;;;;;5029632;28;20032;-72
2021/04/15 13:56:42;;;;;;;426.33;299.55;;;;;;;;;;5048067;28;20036;-71
2021/04/15 13:59:27;;;;;;;412.90;293.38;;;;;;;;;;5031081;28;20653;-72
2021/04/15 14:01:53;;;;;;;422.55;293.73;;;;;;;;;;5041856;28;20075;-72
2021/04/15 14:04:38;;;;;;;413.27;295.00;;;;;;;;;;5036624;28;20030;-73
2021/04/15 14:07:24;;;;;;;414.58;295.35;;;;;;;;;;5045378;28;20670;-71
2021/04/15 14:10:16;;;;;;;408.45;291.27;;;;;;;;;;5020759;28;20037;-72
2021/04/15 14:12:47;;;;;;;408.13;296.65;;;;;;;;;;5023856;28;20018;-72
2021/04/15 14:15:16;;;;;;;403.58;288.67;;;;;;;;;;5046627;28;20021;-72
2021/04/15 14:17:46;;;;;;;407.33;291.90;;;;;;;;;;5026544;28;20030;-72
2021/04/15 14:20:22;;;;;;;405.13;286.10;;;;;;;;;;5031935;28;20025;-72
2021/04/15 14:22:48;;;;;;;407.58;285.73;;;;;;;;;;5044553;28;20064;-73
2021/04/15 14:25:27;;;;;;;406.65;287.70;;;;;;;;;;5050106;28;20607;-71
2021/04/15 14:27:54;;;;;;;416.00;293.25;;;;;;;;;;5021294;28;20036;-72
2021/04/15 14:30:21;;;;;;;418.00;292.13;;;;;;;;;;5043213;28;20103;-72
2021/04/15 14:32:47;;;;;;;406.38;288.60;;;;;;;;;;5020464;28;20021;-72